sensor_id;sensor_type;location;lat;lon;timestamp;temperature;humidity
26035;DHT22;13809;48.632;11.576;2023-01-19T00:02:10;4.60;39.30
26035;DHT22;13809;48.632;11.576;2023-01-19T00:07:15;4.60;39.30
26035;DHT22;13809;48.632;11.576;2023-01-19T00:12:18;4.60;39.50
26035;DHT22;13809;48.632;11.576;2023-01-19T00:17:21;4.70;39.50
26035;DHT22;13809;48.632;11.576;2023-01-19T00:22:26;4.60;39.30
26035;DHT22;13809;48.632;11.576;2023-01-19T00:27:29;4.60;39.40
26035;DHT22;13809;48.632;11.576;2023-01-19T00:32:35;4.70;39.30
26035;DHT22;13809;48.632;11.576;2023-01-19T00:37:40;4.70;39.30
26035;DHT22;13809;48.632;11.576;2023-01-19T00:42:46;4.70;39.20
26035;DHT22;13809;48.632;11.576;2023-01-19T00:47:50;4.70;39.10
26035;DHT22;13809;48.632;11.576;2023-01-19T00:52:57;4.90;39.30
26035;DHT22;13809;48.632;11.576;2023-01-19T00:58:02;4.70;39.20
26035;DHT22;13809;48.632;11.576;2023-01-19T01:03:05;4.80;39.10
26035;DHT22;13809;48.632;11.576;2023-01-19T01:08:11;4.80;39.10
26035;DHT22;13809;48.632;11.576;2023-01-19T01:13:14;4.80;39.00
26035;DHT22;13809;48.632;11.576;2023-01-19T01:18:23;4.80;38.80
26035;DHT22;13809;48.632;11.576;2023-01-19T01:23:28;4.80;38.80
26035;DHT22;13809;48.632;11.576;2023-01-19T01:28:31;4.70;38.90
26035;DHT22;13809;48.632;11.576;2023-01-19T01:33:34;4.70;38.90
26035;DHT22;13809;48.632;11.576;2023-01-19T01:38:42;4.80;39.00
26035;DHT22;13809;48.632;11.576;2023-01-19T01:43:47;4.80;39.00
26035;DHT22;13809;48.632;11.576;2023-01-19T01:48:53;4.80;38.70
26035;DHT22;13809;48.632;11.576;2023-01-19T01:54:11;4.80;38.90
26035;DHT22;13809;48.632;11.576;2023-01-19T01:59:19;4.80;38.90
26035;DHT22;13809;48.632;11.576;2023-01-19T02:04:28;4.80;38.70
26035;DHT22;13809;48.632;11.576;2023-01-19T02:09:35;4.80;38.70
26035;DHT22;13809;48.632;11.576;2023-01-19T02:14:56;4.80;38.80
26035;DHT22;13809;48.632;11.576;2023-01-19T02:19:59;4.80;38.70
26035;DHT22;13809;48.632;11.576;2023-01-19T02:25:06;4.80;38.70
26035;DHT22;13809;48.632;11.576;2023-01-19T02:30:10;4.80;38.80
26035;DHT22;13809;48.632;11.576;2023-01-19T02:35:14;4.80;38.70
26035;DHT22;13809;48.632;11.576;2023-01-19T02:40:21;4.80;38.80
26035;DHT22;13809;48.632;11.576;2023-01-19T02:45:26;4.80;38.90
26035;DHT22;13809;48.632;11.576;2023-01-19T02:50:41;4.80;38.80
26035;DHT22;13809;48.632;11.576;2023-01-19T02:55:54;4.80;38.80
26035;DHT22;13809;48.632;11.576;2023-01-19T03:01:05;4.70;38.90
26035;DHT22;13809;48.632;11.576;2023-01-19T03:06:21;4.70;39.00
26035;DHT22;13809;48.632;11.576;2023-01-19T03:11:33;4.70;39.00
26035;DHT22;13809;48.632;11.576;2023-01-19T03:16:41;4.70;38.90
26035;DHT22;13809;48.632;11.576;2023-01-19T03:21:48;4.70;38.90
26035;DHT22;13809;48.632;11.576;2023-01-19T03:26:56;4.60;38.80
26035;DHT22;13809;48.632;11.576;2023-01-19T03:32:05;4.60;38.90
26035;DHT22;13809;48.632;11.576;2023-01-19T03:37:10;4.60;38.90
26035;DHT22;13809;48.632;11.576;2023-01-19T03:42:17;4.60;38.90
26035;DHT22;13809;48.632;11.576;2023-01-19T03:47:21;4.60;38.90
26035;DHT22;13809;48.632;11.576;2023-01-19T03:52:27;4.60;38.80
26035;DHT22;13809;48.632;11.576;2023-01-19T03:57:31;4.60;38.80
26035;DHT22;13809;48.632;11.576;2023-01-19T04:02:35;4.60;38.70
26035;DHT22;13809;48.632;11.576;2023-01-19T04:07:38;4.50;38.60
26035;DHT22;13809;48.632;11.576;2023-01-19T04:12:42;4.50;38.70
26035;DHT22;13809;48.632;11.576;2023-01-19T04:17:46;4.50;38.70
26035;DHT22;13809;48.632;11.576;2023-01-19T04:22:49;4.50;38.60
26035;DHT22;13809;48.632;11.576;2023-01-19T04:27:53;4.40;38.50
26035;DHT22;13809;48.632;11.576;2023-01-19T04:32:58;4.40;38.50
26035;DHT22;13809;48.632;11.576;2023-01-19T04:38:02;4.40;38.40
26035;DHT22;13809;48.632;11.576;2023-01-19T04:43:07;4.40;38.60
26035;DHT22;13809;48.632;11.576;2023-01-19T04:48:11;4.30;38.70
26035;DHT22;13809;48.632;11.576;2023-01-19T04:53:14;4.40;38.50
26035;DHT22;13809;48.632;11.576;2023-01-19T04:58:20;4.30;38.20
26035;DHT22;13809;48.632;11.576;2023-01-19T05:03:23;4.20;38.30
26035;DHT22;13809;48.632;11.576;2023-01-19T05:08:27;4.10;38.40
26035;DHT22;13809;48.632;11.576;2023-01-19T05:13:33;4.10;38.50
26035;DHT22;13809;48.632;11.576;2023-01-19T05:18:37;4.10;38.40
26035;DHT22;13809;48.632;11.576;2023-01-19T05:23:40;4.00;38.40
26035;DHT22;13809;48.632;11.576;2023-01-19T05:28:44;3.90;38.40
26035;DHT22;13809;48.632;11.576;2023-01-19T05:33:48;4.00;38.60
26035;DHT22;13809;48.632;11.576;2023-01-19T05:38:51;3.80;38.50
26035;DHT22;13809;48.632;11.576;2023-01-19T05:43:55;3.70;38.50
26035;DHT22;13809;48.632;11.576;2023-01-19T05:48:58;3.70;38.60
26035;DHT22;13809;48.632;11.576;2023-01-19T05:54:05;3.50;38.50
26035;DHT22;13809;48.632;11.576;2023-01-19T05:59:10;3.50;38.60
26035;DHT22;13809;48.632;11.576;2023-01-19T06:04:13;3.70;38.90
26035;DHT22;13809;48.632;11.576;2023-01-19T06:09:16;3.50;38.60
26035;DHT22;13809;48.632;11.576;2023-01-19T06:14:21;3.50;38.70
26035;DHT22;13809;48.632;11.576;2023-01-19T06:19:24;3.30;38.60
26035;DHT22;13809;48.632;11.576;2023-01-19T06:24:28;3.30;38.90
26035;DHT22;13809;48.632;11.576;2023-01-19T06:29:33;3.30;40.10
26035;DHT22;13809;48.632;11.576;2023-01-19T06:34:36;3.30;39.40
26035;DHT22;13809;48.632;11.576;2023-01-19T06:39:41;3.30;39.50
26035;DHT22;13809;48.632;11.576;2023-01-19T06:44:47;3.40;38.80
26035;DHT22;13809;48.632;11.576;2023-01-19T06:49:51;3.30;38.70
26035;DHT22;13809;48.632;11.576;2023-01-19T06:54:54;3.20;38.60
26035;DHT22;13809;48.632;11.576;2023-01-19T06:59:59;3.20;38.70
26035;DHT22;13809;48.632;11.576;2023-01-19T07:05:06;3.20;38.70
26035;DHT22;13809;48.632;11.576;2023-01-19T07:10:10;3.20;38.70
26035;DHT22;13809;48.632;11.576;2023-01-19T07:15:19;3.20;38.80
26035;DHT22;13809;48.632;11.576;2023-01-19T07:20:23;3.20;38.80
26035;DHT22;13809;48.632;11.576;2023-01-19T07:25:26;3.40;38.70
26035;DHT22;13809;48.632;11.576;2023-01-19T07:30:31;3.20;38.50
26035;DHT22;13809;48.632;11.576;2023-01-19T07:35:34;3.30;38.60
26035;DHT22;13809;48.632;11.576;2023-01-19T07:40:37;3.20;38.60
26035;DHT22;13809;48.632;11.576;2023-01-19T07:45:42;3.10;38.60
26035;DHT22;13809;48.632;11.576;2023-01-19T07:50:45;3.00;38.70
26035;DHT22;13809;48.632;11.576;2023-01-19T07:55:53;3.10;39.00
26035;DHT22;13809;48.632;11.576;2023-01-19T08:00:58;3.00;39.10
26035;DHT22;13809;48.632;11.576;2023-01-19T08:06:02;3.10;39.10
26035;DHT22;13809;48.632;11.576;2023-01-19T08:11:06;3.20;38.90
26035;DHT22;13809;48.632;11.576;2023-01-19T08:16:10;3.20;38.80
26035;DHT22;13809;48.632;11.576;2023-01-19T08:21:13;3.20;38.90
26035;DHT22;13809;48.632;11.576;2023-01-19T08:26:17;3.30;38.90
26035;DHT22;13809;48.632;11.576;2023-01-19T08:31:23;3.30;38.90
26035;DHT22;13809;48.632;11.576;2023-01-19T08:36:27;3.30;39.00
26035;DHT22;13809;48.632;11.576;2023-01-19T08:41:30;3.20;38.90
26035;DHT22;13809;48.632;11.576;2023-01-19T08:46:34;3.30;39.10
26035;DHT22;13809;48.632;11.576;2023-01-19T08:51:38;3.40;39.10
26035;DHT22;13809;48.632;11.576;2023-01-19T08:56:41;3.40;39.10
26035;DHT22;13809;48.632;11.576;2023-01-19T09:01:45;3.50;39.60
26035;DHT22;13809;48.632;11.576;2023-01-19T09:06:49;3.60;38.80
26035;DHT22;13809;48.632;11.576;2023-01-19T09:11:52;3.70;38.80
26035;DHT22;13809;48.632;11.576;2023-01-19T09:16:57;3.70;38.60
26035;DHT22;13809;48.632;11.576;2023-01-19T09:22:00;3.80;38.40
26035;DHT22;13809;48.632;11.576;2023-01-19T09:27:04;3.80;38.20
26035;DHT22;13809;48.632;11.576;2023-01-19T09:32:08;3.90;38.20
26035;DHT22;13809;48.632;11.576;2023-01-19T09:37:12;3.90;38.00
26035;DHT22;13809;48.632;11.576;2023-01-19T09:42:22;3.90;38.10
26035;DHT22;13809;48.632;11.576;2023-01-19T09:47:29;3.90;38.00
26035;DHT22;13809;48.632;11.576;2023-01-19T09:52:35;4.00;38.00
26035;DHT22;13809;48.632;11.576;2023-01-19T09:57:41;4.00;38.20
26035;DHT22;13809;48.632;11.576;2023-01-19T10:02:48;4.00;38.00
26035;DHT22;13809;48.632;11.576;2023-01-19T10:08:06;4.10;38.70
26035;DHT22;13809;48.632;11.576;2023-01-19T10:13:24;4.10;37.90
26035;DHT22;13809;48.632;11.576;2023-01-19T10:18:39;4.20;37.90
26035;DHT22;13809;48.632;11.576;2023-01-19T10:23:50;4.30;37.80
26035;DHT22;13809;48.632;11.576;2023-01-19T10:29:01;4.40;38.30
26035;DHT22;13809;48.632;11.576;2023-01-19T10:34:07;4.50;37.70
26035;DHT22;13809;48.632;11.576;2023-01-19T10:39:15;4.70;37.50
26035;DHT22;13809;48.632;11.576;2023-01-19T10:44:25;4.80;37.20
26035;DHT22;13809;48.632;11.576;2023-01-19T10:49:35;4.80;36.60
26035;DHT22;13809;48.632;11.576;2023-01-19T10:54:42;4.80;36.60
26035;DHT22;13809;48.632;11.576;2023-01-19T10:59:47;4.80;36.60
26035;DHT22;13809;48.632;11.576;2023-01-19T11:04:55;4.80;36.90
26035;DHT22;13809;48.632;11.576;2023-01-19T11:10:15;4.80;37.00
26035;DHT22;13809;48.632;11.576;2023-01-19T11:15:26;4.80;37.00
26035;DHT22;13809;48.632;11.576;2023-01-19T11:20:39;4.90;37.50
26035;DHT22;13809;48.632;11.576;2023-01-19T11:25:51;5.00;36.80
26035;DHT22;13809;48.632;11.576;2023-01-19T11:30:59;5.00;37.20
26035;DHT22;13809;48.632;11.576;2023-01-19T11:36:14;5.10;37.00
26035;DHT22;13809;48.632;11.576;2023-01-19T11:41:20;5.20;37.00
26035;DHT22;13809;48.632;11.576;2023-01-19T11:46:27;5.30;37.00
26035;DHT22;13809;48.632;11.576;2023-01-19T11:51:50;5.40;37.10
26035;DHT22;13809;48.632;11.576;2023-01-19T11:56:54;5.40;37.10
26035;DHT22;13809;48.632;11.576;2023-01-19T12:02:09;5.50;37.20
26035;DHT22;13809;48.632;11.576;2023-01-19T12:07:21;5.50;37.20
26035;DHT22;13809;48.632;11.576;2023-01-19T12:12:28;5.60;37.30
26035;DHT22;13809;48.632;11.576;2023-01-19T12:17:34;5.70;37.40
26035;DHT22;13809;48.632;11.576;2023-01-19T12:22:49;5.80;37.40
26035;DHT22;13809;48.632;11.576;2023-01-19T12:27:54;5.90;36.70
26035;DHT22;13809;48.632;11.576;2023-01-19T12:33:19;6.00;37.20
26035;DHT22;13809;48.632;11.576;2023-01-19T12:38:38;6.00;36.40
26035;DHT22;13809;48.632;11.576;2023-01-19T12:43:42;6.10;36.10
26035;DHT22;13809;48.632;11.576;2023-01-19T12:48:46;6.20;37.00
26035;DHT22;13809;48.632;11.576;2023-01-19T12:53:52;6.20;36.90
26035;DHT22;13809;48.632;11.576;2023-01-19T12:58:57;6.30;36.40
26035;DHT22;13809;48.632;11.576;2023-01-19T13:04:02;6.30;36.50
26035;DHT22;13809;48.632;11.576;2023-01-19T13:09:29;6.20;36.60
26035;DHT22;13809;48.632;11.576;2023-01-19T13:14:35;6.10;35.60
26035;DHT22;13809;48.632;11.576;2023-01-19T13:20:02;6.10;36.40
26035;DHT22;13809;48.632;11.576;2023-01-19T13:25:11;6.10;35.50
26035;DHT22;13809;48.632;11.576;2023-01-19T13:30:15;6.10;36.00
26035;DHT22;13809;48.632;11.576;2023-01-19T13:35:20;6.10;35.80
26035;DHT22;13809;48.632;11.576;2023-01-19T13:40:34;6.10;35.70
26035;DHT22;13809;48.632;11.576;2023-01-19T13:45:39;6.10;35.00
26035;DHT22;13809;48.632;11.576;2023-01-19T13:50:55;6.10;35.90
26035;DHT22;13809;48.632;11.576;2023-01-19T13:56:08;6.10;35.10
26035;DHT22;13809;48.632;11.576;2023-01-19T14:01:21;6.10;35.40
26035;DHT22;13809;48.632;11.576;2023-01-19T14:06:35;6.10;35.10
26035;DHT22;13809;48.632;11.576;2023-01-19T14:11:40;6.10;35.10
26035;DHT22;13809;48.632;11.576;2023-01-19T14:16:44;6.00;35.40
26035;DHT22;13809;48.632;11.576;2023-01-19T14:21:57;6.00;35.80
26035;DHT22;13809;48.632;11.576;2023-01-19T14:27:19;6.00;35.30
26035;DHT22;13809;48.632;11.576;2023-01-19T14:32:24;5.90;35.20
26035;DHT22;13809;48.632;11.576;2023-01-19T14:37:30;5.90;35.80
26035;DHT22;13809;48.632;11.576;2023-01-19T14:42:36;5.90;35.80
26035;DHT22;13809;48.632;11.576;2023-01-19T14:47:42;5.90;35.80
26035;DHT22;13809;48.632;11.576;2023-01-19T14:52:51;5.90;36.10
26035;DHT22;13809;48.632;11.576;2023-01-19T14:57:59;6.00;36.00
26035;DHT22;13809;48.632;11.576;2023-01-19T15:03:03;6.10;35.80
26035;DHT22;13809;48.632;11.576;2023-01-19T15:08:07;6.10;36.20
26035;DHT22;13809;48.632;11.576;2023-01-19T15:13:17;6.10;36.10
26035;DHT22;13809;48.632;11.576;2023-01-19T15:18:24;6.20;35.80
26035;DHT22;13809;48.632;11.576;2023-01-19T15:23:28;6.20;35.70
26035;DHT22;13809;48.632;11.576;2023-01-19T15:28:33;6.30;35.90
26035;DHT22;13809;48.632;11.576;2023-01-19T15:33:36;6.20;35.60
26035;DHT22;13809;48.632;11.576;2023-01-19T15:38:39;6.30;35.80
26035;DHT22;13809;48.632;11.576;2023-01-19T15:43:44;6.30;36.00
26035;DHT22;13809;48.632;11.576;2023-01-19T15:48:49;6.30;35.70
26035;DHT22;13809;48.632;11.576;2023-01-19T15:53:53;6.30;35.90
26035;DHT22;13809;48.632;11.576;2023-01-19T15:58:58;6.30;36.00
26035;DHT22;13809;48.632;11.576;2023-01-19T16:04:05;6.30;35.90
26035;DHT22;13809;48.632;11.576;2023-01-19T16:09:10;6.30;36.00
26035;DHT22;13809;48.632;11.576;2023-01-19T16:14:19;6.30;36.10
26035;DHT22;13809;48.632;11.576;2023-01-19T16:19:24;6.30;36.00
26035;DHT22;13809;48.632;11.576;2023-01-19T16:24:27;6.30;35.90
26035;DHT22;13809;48.632;11.576;2023-01-19T16:29:32;6.30;35.70
26035;DHT22;13809;48.632;11.576;2023-01-19T16:34:35;6.30;35.30
26035;DHT22;13809;48.632;11.576;2023-01-19T16:39:38;6.20;35.40
26035;DHT22;13809;48.632;11.576;2023-01-19T16:44:46;6.10;35.60
26035;DHT22;13809;48.632;11.576;2023-01-19T16:49:49;6.10;35.70
26035;DHT22;13809;48.632;11.576;2023-01-19T16:54:53;6.10;35.80
26035;DHT22;13809;48.632;11.576;2023-01-19T16:59:58;6.10;35.90
26035;DHT22;13809;48.632;11.576;2023-01-19T17:05:01;6.10;35.60
26035;DHT22;13809;48.632;11.576;2023-01-19T17:10:06;6.10;35.50
26035;DHT22;13809;48.632;11.576;2023-01-19T17:15:11;6.10;35.30
26035;DHT22;13809;48.632;11.576;2023-01-19T17:20:15;6.00;35.00
26035;DHT22;13809;48.632;11.576;2023-01-19T17:25:18;5.90;35.10
26035;DHT22;13809;48.632;11.576;2023-01-19T17:30:23;5.80;35.00
26035;DHT22;13809;48.632;11.576;2023-01-19T17:35:26;5.70;35.10
26035;DHT22;13809;48.632;11.576;2023-01-19T17:40:29;5.60;35.40
26035;DHT22;13809;48.632;11.576;2023-01-19T17:45:35;5.50;35.50
26035;DHT22;13809;48.632;11.576;2023-01-19T17:50:38;5.50;35.40
26035;DHT22;13809;48.632;11.576;2023-01-19T17:55:42;5.40;35.60
26035;DHT22;13809;48.632;11.576;2023-01-19T18:00:46;5.40;36.30
26035;DHT22;13809;48.632;11.576;2023-01-19T18:05:53;5.30;35.50
26035;DHT22;13809;48.632;11.576;2023-01-19T18:10:57;5.30;35.40
26035;DHT22;13809;48.632;11.576;2023-01-19T18:16:08;5.20;35.70
26035;DHT22;13809;48.632;11.576;2023-01-19T18:21:13;5.10;35.50
26035;DHT22;13809;48.632;11.576;2023-01-19T18:26:19;5.20;35.90
26035;DHT22;13809;48.632;11.576;2023-01-19T18:31:24;5.10;35.80
26035;DHT22;13809;48.632;11.576;2023-01-19T18:36:28;5.10;35.60
26035;DHT22;13809;48.632;11.576;2023-01-19T18:41:33;5.20;35.80
26035;DHT22;13809;48.632;11.576;2023-01-19T18:46:42;5.20;35.90
26035;DHT22;13809;48.632;11.576;2023-01-19T18:51:45;5.20;35.80
26035;DHT22;13809;48.632;11.576;2023-01-19T18:56:49;5.10;35.90
26035;DHT22;13809;48.632;11.576;2023-01-19T19:01:53;5.10;35.90
26035;DHT22;13809;48.632;11.576;2023-01-19T19:06:57;5.20;35.60
26035;DHT22;13809;48.632;11.576;2023-01-19T19:12:00;5.10;35.70
26035;DHT22;13809;48.632;11.576;2023-01-19T19:17:05;5.10;35.70
26035;DHT22;13809;48.632;11.576;2023-01-19T19:22:08;5.00;35.70
26035;DHT22;13809;48.632;11.576;2023-01-19T19:27:11;4.90;35.80
26035;DHT22;13809;48.632;11.576;2023-01-19T19:32:16;4.90;35.90
26035;DHT22;13809;48.632;11.576;2023-01-19T19:37:21;4.90;35.90
26035;DHT22;13809;48.632;11.576;2023-01-19T19:42:24;4.90;35.90
26035;DHT22;13809;48.632;11.576;2023-01-19T19:47:31;4.90;36.00
26035;DHT22;13809;48.632;11.576;2023-01-19T19:52:37;4.90;35.90
26035;DHT22;13809;48.632;11.576;2023-01-19T19:57:40;4.90;35.80
26035;DHT22;13809;48.632;11.576;2023-01-19T20:02:45;4.90;36.00
26035;DHT22;13809;48.632;11.576;2023-01-19T20:07:48;4.90;36.00
26035;DHT22;13809;48.632;11.576;2023-01-19T20:12:51;4.90;36.10
26035;DHT22;13809;48.632;11.576;2023-01-19T20:17:56;4.90;35.90
26035;DHT22;13809;48.632;11.576;2023-01-19T20:23:00;4.90;35.80
26035;DHT22;13809;48.632;11.576;2023-01-19T20:28:03;5.00;36.00
26035;DHT22;13809;48.632;11.576;2023-01-19T20:33:08;4.90;35.90
26035;DHT22;13809;48.632;11.576;2023-01-19T20:38:11;5.00;35.80
26035;DHT22;13809;48.632;11.576;2023-01-19T20:43:14;5.00;35.80
26035;DHT22;13809;48.632;11.576;2023-01-19T20:48:19;5.00;35.70
26035;DHT22;13809;48.632;11.576;2023-01-19T20:53:22;5.00;35.60
26035;DHT22;13809;48.632;11.576;2023-01-19T20:58:25;5.10;35.80
26035;DHT22;13809;48.632;11.576;2023-01-19T21:03:30;5.10;35.80
26035;DHT22;13809;48.632;11.576;2023-01-19T21:08:36;5.10;35.40
26035;DHT22;13809;48.632;11.576;2023-01-19T21:13:39;5.10;35.40
26035;DHT22;13809;48.632;11.576;2023-01-19T21:18:44;5.20;35.40
26035;DHT22;13809;48.632;11.576;2023-01-19T21:23:47;5.10;35.20
26035;DHT22;13809;48.632;11.576;2023-01-19T21:28:51;5.20;35.50
26035;DHT22;13809;48.632;11.576;2023-01-19T21:33:56;5.20;35.60
26035;DHT22;13809;48.632;11.576;2023-01-19T21:38:59;5.20;35.60
26035;DHT22;13809;48.632;11.576;2023-01-19T21:44:02;5.20;35.70
26035;DHT22;13809;48.632;11.576;2023-01-19T21:49:07;5.30;35.80
26035;DHT22;13809;48.632;11.576;2023-01-19T21:54:15;5.30;35.80
26035;DHT22;13809;48.632;11.576;2023-01-19T21:59:18;5.30;35.90
26035;DHT22;13809;48.632;11.576;2023-01-19T22:04:23;5.40;35.90
26035;DHT22;13809;48.632;11.576;2023-01-19T22:09:26;5.40;35.90
26035;DHT22;13809;48.632;11.576;2023-01-19T22:14:29;5.40;35.80
26035;DHT22;13809;48.632;11.576;2023-01-19T22:19:34;5.40;35.80
26035;DHT22;13809;48.632;11.576;2023-01-19T22:24:37;5.40;35.60
26035;DHT22;13809;48.632;11.576;2023-01-19T22:29:40;5.40;35.60
26035;DHT22;13809;48.632;11.576;2023-01-19T22:34:46;5.50;35.60
26035;DHT22;13809;48.632;11.576;2023-01-19T22:39:49;5.40;35.60
26035;DHT22;13809;48.632;11.576;2023-01-19T22:44:52;5.40;35.80
26035;DHT22;13809;48.632;11.576;2023-01-19T22:49:57;5.40;35.90
26035;DHT22;13809;48.632;11.576;2023-01-19T22:55:01;5.40;36.00
26035;DHT22;13809;48.632;11.576;2023-01-19T23:00:06;5.40;35.80
26035;DHT22;13809;48.632;11.576;2023-01-19T23:05:11;5.40;35.70
26035;DHT22;13809;48.632;11.576;2023-01-19T23:10:15;5.40;35.70
26035;DHT22;13809;48.632;11.576;2023-01-19T23:15:18;5.40;35.80
26035;DHT22;13809;48.632;11.576;2023-01-19T23:20:23;5.30;35.60
26035;DHT22;13809;48.632;11.576;2023-01-19T23:25:26;5.20;35.60
26035;DHT22;13809;48.632;11.576;2023-01-19T23:30:29;5.20;35.90
26035;DHT22;13809;48.632;11.576;2023-01-19T23:35:34;5.10;36.00
26035;DHT22;13809;48.632;11.576;2023-01-19T23:40:37;5.10;35.80
26035;DHT22;13809;48.632;11.576;2023-01-19T23:45:40;5.10;35.60
26035;DHT22;13809;48.632;11.576;2023-01-19T23:50:45;5.10;35.60
26035;DHT22;13809;48.632;11.576;2023-01-19T23:55:48;5.10;35.70
